createdAt,value
2019-01-08T00:02:08.109Z,98434.45
2019-01-08T00:04:40.681Z,98432.00
2019-01-08T00:07:13.053Z,98432.77
2019-01-08T00:09:45.528Z,98423.61
2019-01-08T00:12:17.907Z,98413.42
2019-01-08T00:14:50.270Z,98408.76
2019-01-08T00:17:22.843Z,98410.09
2019-01-08T00:19:55.321Z,98389.05
2019-01-08T00:22:27.792Z,98388.30
2019-01-08T00:25:00.174Z,98390.02
2019-01-08T00:27:32.526Z,98378.36
2019-01-08T00:30:05.271Z,98374.88
2019-01-08T00:32:37.748Z,98374.11
2019-01-08T00:35:10.163Z,98372.66
2019-01-08T00:37:42.601Z,98362.10
2019-01-08T00:40:15.071Z,98358.42
2019-01-08T00:42:47.325Z,98353.64
2019-01-08T00:45:19.676Z,98344.80
2019-01-08T00:47:51.923Z,98340.42
2019-01-08T00:50:24.236Z,98342.05
2019-01-08T00:52:56.445Z,98331.61
2019-01-08T00:55:28.764Z,98322.55
2019-01-08T00:58:00.981Z,98323.81
2019-01-08T01:00:33.300Z,98323.22
2019-01-08T01:03:05.610Z,98312.70
2019-01-08T01:05:38.031Z,98307.10
2019-01-08T01:08:10.335Z,98304.99
2019-01-08T01:10:42.551Z,98294.60
2019-01-08T01:13:14.869Z,98290.31
2019-01-08T01:15:47.194Z,98284.29
2019-01-08T01:18:19.404Z,98277.77
2019-01-08T01:20:53.631Z,98266.13
2019-01-08T01:23:25.618Z,98275.20
2019-01-08T01:25:57.882Z,98267.18
2019-01-08T01:28:30.096Z,98265.62
2019-01-08T01:31:02.313Z,98259.85
2019-01-08T01:33:34.520Z,98254.13
2019-01-08T01:36:06.739Z,98252.59
2019-01-08T01:38:38.963Z,98249.41
2019-01-08T01:41:11.291Z,98239.14
2019-01-08T01:43:43.709Z,98227.31
2019-01-08T01:46:16.030Z,98220.84
2019-01-08T01:48:48.352Z,98214.77
2019-01-08T01:51:20.570Z,98205.55
2019-01-08T01:53:52.781Z,98210.23
2019-01-08T01:56:24.999Z,98204.24
2019-01-08T01:58:57.204Z,98198.64
2019-01-08T02:01:29.417Z,98191.11
2019-01-08T02:04:01.632Z,98186.08
2019-01-08T02:06:34.053Z,98180.56
2019-01-08T02:09:07.821Z,98170.08
2019-01-08T02:11:40.134Z,98166.34
2019-01-08T02:14:12.443Z,98149.17
2019-01-08T02:16:44.752Z,98143.16
2019-01-08T02:19:17.010Z,98130.52
2019-01-08T02:21:49.366Z,98121.39
2019-01-08T02:24:21.575Z,98115.96
2019-01-08T02:26:53.881Z,98117.85
2019-01-08T02:29:26.190Z,98109.44
2019-01-08T02:31:58.391Z,98103.55
2019-01-08T02:34:30.595Z,98093.15
2019-01-08T02:37:02.802Z,98084.73
2019-01-08T02:39:35.014Z,98086.65
2019-01-08T02:42:07.428Z,98077.34
2019-01-08T02:44:39.856Z,98069.53
2019-01-08T02:47:12.207Z,98059.02
2019-01-08T02:49:44.409Z,98049.66
2019-01-08T02:52:16.620Z,98040.84
2019-01-08T02:54:48.928Z,98033.22
2019-01-08T02:57:21.209Z,98027.95
2019-01-08T02:59:53.532Z,98022.08
2019-01-08T03:02:25.754Z,98010.97
2019-01-08T03:04:57.975Z,98006.47
2019-01-08T03:07:30.181Z,97994.07
2019-01-08T03:10:02.395Z,97993.13
2019-01-08T03:12:34.604Z,97986.66
2019-01-08T03:15:07.375Z,97978.63
2019-01-08T03:17:39.641Z,97974.82
2019-01-08T03:20:11.945Z,97964.80
2019-01-08T03:22:44.164Z,97959.55
2019-01-08T03:25:16.481Z,97958.92
2019-01-08T03:27:48.801Z,97954.58
2019-01-08T03:30:21.006Z,97941.53
2019-01-08T03:32:53.246Z,97935.16
2019-01-08T03:35:25.449Z,97931.18
2019-01-08T03:37:57.664Z,97912.02
2019-01-08T03:40:29.872Z,97911.94
2019-01-08T03:43:02.190Z,97908.92
2019-01-08T03:45:34.492Z,97898.89
2019-01-08T03:48:06.806Z,97897.55
2019-01-08T03:50:39.021Z,97886.03
2019-01-08T03:53:11.230Z,97877.33
2019-01-08T03:55:43.438Z,97870.61
2019-01-08T03:58:15.855Z,97872.66
2019-01-08T04:00:48.166Z,97859.77
2019-01-08T04:03:20.365Z,97854.84
2019-01-08T04:05:52.568Z,97851.22
2019-01-08T04:08:24.783Z,97848.02
2019-01-08T04:10:56.983Z,97845.47
2019-01-08T04:13:29.338Z,97838.51
2019-01-08T04:16:01.680Z,97839.05
2019-01-08T04:18:34.036Z,97832.16
2019-01-08T04:21:06.591Z,97825.83
2019-01-08T04:23:39.038Z,97814.16
2019-01-08T04:26:11.391Z,97808.52
2019-01-08T04:28:43.747Z,97806.95
2019-01-08T04:31:15.951Z,97803.22
2019-01-08T04:33:48.158Z,97809.55
2019-01-08T04:36:20.473Z,97800.72
2019-01-08T04:38:52.684Z,97798.21
2019-01-08T04:41:24.996Z,97798.41
2019-01-08T04:43:57.211Z,97793.47
2019-01-08T04:46:29.411Z,97782.94
2019-01-08T04:49:01.618Z,97776.64
2019-01-08T04:51:33.937Z,97763.50
2019-01-08T04:54:06.252Z,97762.30
2019-01-08T04:56:38.460Z,97762.54
2019-01-08T04:59:10.668Z,97761.09
2019-01-08T05:01:42.880Z,97752.05
2019-01-08T05:04:15.170Z,97746.86
2019-01-08T05:06:47.440Z,97743.35
2019-01-08T05:09:19.650Z,97756.47
2019-01-08T05:11:51.856Z,97748.63
2019-01-08T05:14:24.065Z,97741.31
2019-01-08T05:16:56.369Z,97748.36
2019-01-08T05:19:28.687Z,97750.99
2019-01-08T05:22:00.890Z,97748.31
2019-01-08T05:24:33.192Z,97749.44
2019-01-08T05:27:05.396Z,97746.58
2019-01-08T05:29:37.648Z,97742.27
2019-01-08T05:32:09.861Z,97744.80
2019-01-08T05:34:42.060Z,97743.84
2019-01-08T05:37:14.362Z,97742.34
2019-01-08T05:39:46.585Z,97740.41
2019-01-08T05:42:18.792Z,97742.96
2019-01-08T05:44:50.990Z,97737.84
2019-01-08T05:47:23.190Z,97736.23
2019-01-08T05:49:55.405Z,97735.97
2019-01-08T05:52:27.704Z,97738.42
2019-01-08T05:54:59.914Z,97729.78
2019-01-08T05:57:32.115Z,97725.11
2019-01-08T06:00:04.754Z,97725.86
2019-01-08T06:02:36.961Z,97718.44
2019-01-08T06:05:09.380Z,97709.61
2019-01-08T06:07:41.583Z,97696.84
2019-01-08T06:10:13.887Z,97703.55
2019-01-08T06:12:46.198Z,97700.23
2019-01-08T06:15:18.488Z,97692.45
2019-01-08T06:17:50.689Z,97694.17
2019-01-08T06:20:22.903Z,97696.47
2019-01-08T06:22:55.113Z,97688.83
2019-01-08T06:25:27.470Z,97694.09
2019-01-08T06:27:59.815Z,97697.81
2019-01-08T06:30:32.174Z,97690.96
2019-01-08T06:33:04.526Z,97692.22
2019-01-08T06:35:36.874Z,97698.30
2019-01-08T06:38:09.217Z,97693.05
2019-01-08T06:40:41.406Z,97689.27
2019-01-08T06:43:13.615Z,97690.64
2019-01-08T06:45:45.829Z,97691.33
2019-01-08T06:48:18.039Z,97694.09
2019-01-08T06:50:55.980Z,97692.34
2019-01-08T06:53:24.244Z,97686.82
2019-01-08T06:55:56.550Z,97687.08
2019-01-08T06:58:28.766Z,97682.84
2019-01-08T07:01:00.980Z,97687.81
2019-01-08T07:03:33.184Z,97685.66
2019-01-08T07:06:05.389Z,97671.81
2019-01-08T07:08:37.606Z,97679.45
2019-01-08T07:11:09.804Z,97675.89
2019-01-08T07:13:42.014Z,97676.75
2019-01-08T07:16:14.319Z,97682.66
2019-01-08T07:18:46.525Z,97686.64
2019-01-08T07:21:18.936Z,97683.30
2019-01-08T07:23:51.147Z,97690.48
2019-01-08T07:26:23.502Z,97699.70
2019-01-08T07:28:55.756Z,97698.53
2019-01-08T07:31:28.057Z,97690.46
2019-01-08T07:34:00.273Z,97687.22
2019-01-08T07:36:32.494Z,97681.14
2019-01-08T07:39:05.940Z,97679.72
2019-01-08T07:41:38.150Z,97672.25
2019-01-08T07:44:10.363Z,97681.74
2019-01-08T07:46:42.575Z,97678.31
2019-01-08T07:49:14.785Z,97669.31
2019-01-08T07:51:46.996Z,97657.23
2019-01-08T07:54:19.214Z,97646.55
2019-01-08T07:56:51.423Z,97623.37
2019-01-08T07:59:23.733Z,97631.73
2019-01-08T08:01:56.044Z,97627.30
2019-01-08T08:04:28.252Z,97621.87
2019-01-08T08:07:00.458Z,97616.47
2019-01-08T08:09:32.869Z,97627.26
2019-01-08T08:12:05.182Z,97627.02
2019-01-08T08:14:37.492Z,97623.07
2019-01-08T08:17:09.706Z,97623.39
2019-01-08T08:19:42.016Z,97616.77
2019-01-08T08:22:14.222Z,97610.76
2019-01-08T08:24:46.582Z,97613.89
2019-01-08T08:27:18.817Z,97608.22
2019-01-08T08:29:51.020Z,97601.82
2019-01-08T08:32:23.267Z,97590.00
2019-01-08T08:34:55.668Z,97592.38
2019-01-08T08:37:27.886Z,97584.27
2019-01-08T08:40:00.127Z,97598.33
2019-01-08T08:42:32.475Z,97607.32
2019-01-08T08:45:04.958Z,97601.52
2019-01-08T08:47:37.264Z,97595.58
2019-01-08T08:50:09.687Z,97599.03
2019-01-08T08:52:42.009Z,97592.72
2019-01-08T08:55:14.317Z,97599.17
2019-01-08T08:57:46.661Z,97610.13
2019-01-08T09:00:19.098Z,97590.45
2019-01-08T09:02:51.413Z,97592.98
2019-01-08T09:05:23.730Z,97576.13
2019-01-08T09:07:55.947Z,97573.43
2019-01-08T09:10:28.254Z,97575.72
2019-01-08T09:13:00.459Z,97576.16
2019-01-08T09:15:32.666Z,97576.42
2019-01-08T09:18:04.885Z,97561.17
2019-01-08T09:20:37.096Z,97556.67
2019-01-08T09:23:09.312Z,97553.36
2019-01-08T09:25:41.476Z,97540.86
2019-01-08T09:28:13.769Z,97543.30
2019-01-08T09:30:46.075Z,97542.45
2019-01-08T09:33:18.380Z,97542.23
2019-01-08T09:35:50.820Z,97542.44
2019-01-08T09:38:23.090Z,97536.97
2019-01-08T09:40:55.397Z,97536.98
2019-01-08T09:43:27.602Z,97530.27
2019-01-08T09:45:59.806Z,97532.95
2019-01-08T09:48:32.033Z,97542.56
2019-01-08T09:51:04.355Z,97538.26
2019-01-08T09:53:36.569Z,97520.93
2019-01-08T09:56:08.875Z,97521.02
2019-01-08T09:58:41.088Z,97514.74
2019-01-08T10:01:13.290Z,97513.73
2019-01-08T10:03:45.576Z,97508.43
2019-01-08T10:06:17.777Z,97510.00
2019-01-08T10:08:49.991Z,97511.02
2019-01-08T10:11:22.300Z,97510.30
2019-01-08T10:13:54.615Z,97505.19
2019-01-08T10:16:26.825Z,97501.56
2019-01-08T10:18:59.032Z,97479.05
2019-01-08T10:21:31.245Z,97470.70
2019-01-08T10:24:03.473Z,97477.23
2019-01-08T10:26:35.789Z,97480.38
2019-01-08T10:29:08.153Z,97478.84
2019-01-08T10:31:40.515Z,97468.72
2019-01-08T10:34:12.727Z,97468.77
2019-01-08T10:36:44.936Z,97466.44
2019-01-08T10:39:17.252Z,97459.36
2019-01-08T10:41:49.574Z,97466.28
2019-01-08T10:44:21.785Z,97451.70
2019-01-08T10:46:53.997Z,97450.27
2019-01-08T10:49:26.197Z,97457.63
2019-01-08T10:51:58.410Z,97449.61
2019-01-08T10:54:30.625Z,97443.06
2019-01-08T10:57:02.836Z,97441.61
2019-01-08T10:59:35.041Z,97436.75
2019-01-08T11:02:07.348Z,97438.89
2019-01-08T11:04:39.564Z,97427.17
2019-01-08T11:07:11.839Z,97425.82
2019-01-08T11:09:44.046Z,97429.33
2019-01-08T11:12:16.255Z,97426.86
2019-01-08T11:14:48.454Z,97415.73
2019-01-08T11:17:20.760Z,97410.47
2019-01-08T11:19:52.966Z,97419.47
2019-01-08T11:22:25.476Z,97403.02
2019-01-08T11:24:57.680Z,97386.77
2019-01-08T11:27:29.837Z,97378.62
2019-01-08T11:30:02.144Z,97375.95
2019-01-08T11:32:34.416Z,97386.27
2019-01-08T11:35:06.990Z,97382.01
2019-01-08T11:37:39.201Z,97373.84
2019-01-08T11:40:11.520Z,97364.06
2019-01-08T11:42:43.823Z,97355.01
2019-01-08T11:45:16.036Z,97352.95
2019-01-08T11:47:48.237Z,97345.88
2019-01-08T11:50:20.445Z,97344.59
2019-01-08T11:52:52.652Z,97343.14
2019-01-08T11:55:24.967Z,97346.59
2019-01-08T11:57:57.174Z,97341.16
2019-01-08T12:00:29.393Z,97332.63
2019-01-08T12:03:01.563Z,97326.09
2019-01-08T12:05:33.771Z,97327.73
2019-01-08T12:08:06.083Z,97321.44
2019-01-08T12:10:38.291Z,97320.17
2019-01-08T12:13:10.504Z,97313.45
2019-01-08T12:15:42.813Z,97313.97
2019-01-08T12:18:15.023Z,97315.89
2019-01-08T12:20:47.233Z,97309.06
2019-01-08T12:23:19.395Z,97301.11
2019-01-08T12:25:51.605Z,97300.53
2019-01-08T12:28:23.825Z,97293.61
2019-01-08T12:30:56.038Z,97291.08
2019-01-08T12:33:28.295Z,97278.63
2019-01-08T12:36:00.511Z,97272.77
2019-01-08T12:38:32.921Z,97296.92
2019-01-08T12:41:05.233Z,97274.38
2019-01-08T12:43:37.448Z,97268.34
2019-01-08T12:46:09.656Z,97263.81
2019-01-08T12:48:41.859Z,97266.76
2019-01-08T12:51:14.181Z,97254.91
2019-01-08T12:53:46.332Z,97253.34
2019-01-08T12:56:18.541Z,97241.22
2019-01-08T12:58:50.754Z,97243.78
2019-01-08T13:01:22.968Z,97250.53
2019-01-08T13:03:55.182Z,97250.73
2019-01-08T13:06:27.585Z,97244.94
2019-01-08T13:08:59.890Z,97239.52
2019-01-08T13:11:32.099Z,97238.66
2019-01-08T13:14:04.421Z,97234.89
2019-01-08T13:16:36.640Z,97235.95
2019-01-08T13:19:08.851Z,97232.47
2019-01-08T13:21:41.066Z,97239.10
2019-01-08T13:24:13.269Z,97235.53
2019-01-08T13:26:45.485Z,97229.42
2019-01-08T13:29:17.791Z,97229.36
2019-01-08T13:31:50.056Z,97239.11
2019-01-08T13:34:22.360Z,97217.88
2019-01-08T13:36:54.574Z,97228.83
2019-01-08T13:39:26.784Z,97232.99
2019-01-08T13:41:59.159Z,97228.98
2019-01-08T13:44:31.353Z,97222.41
2019-01-08T13:47:03.568Z,97228.09
2019-01-08T13:49:35.772Z,97224.63
2019-01-08T13:52:07.988Z,97223.94
2019-01-08T13:54:40.202Z,97226.22
2019-01-08T13:57:12.407Z,97226.16
2019-01-08T13:59:44.821Z,97222.13
2019-01-08T14:02:17.030Z,97216.01
2019-01-08T14:04:49.231Z,97228.35
2019-01-08T14:07:21.441Z,97222.28
2019-01-08T14:09:53.655Z,97218.19
2019-01-08T14:12:25.864Z,97212.71
2019-01-08T14:14:58.067Z,97220.56
2019-01-08T14:17:30.280Z,97222.66
2019-01-08T14:20:02.493Z,97218.08
2019-01-08T14:22:34.703Z,97224.57
2019-01-08T14:25:07.256Z,97226.86
2019-01-08T14:27:39.574Z,97220.90
2019-01-08T14:30:12.585Z,97209.36
2019-01-08T14:32:44.918Z,97219.78
2019-01-08T14:35:17.130Z,97214.95
2019-01-08T14:37:49.445Z,97217.12
2019-01-08T14:40:21.748Z,97207.35
2019-01-08T14:42:54.057Z,97209.37
2019-01-08T14:45:26.566Z,97203.30
2019-01-08T14:47:58.776Z,97207.03
2019-01-08T14:50:31.177Z,97216.02
2019-01-08T14:53:03.497Z,97208.07
2019-01-08T14:55:35.702Z,97200.09
2019-01-08T14:58:08.803Z,97208.38
2019-01-08T15:00:41.006Z,97202.05
2019-01-08T15:03:13.221Z,97203.34
2019-01-08T15:05:45.530Z,97201.52
2019-01-08T15:08:17.733Z,97204.53
2019-01-08T15:10:49.942Z,97201.88
2019-01-08T15:13:22.155Z,97207.61
2019-01-08T15:15:54.565Z,97199.38
2019-01-08T15:18:26.878Z,97193.73
2019-01-08T15:20:59.082Z,97196.70
2019-01-08T15:23:31.394Z,97188.78
2019-01-08T15:26:03.708Z,97191.28
2019-01-08T15:28:36.017Z,97196.96
2019-01-08T15:31:08.325Z,97191.86
2019-01-08T15:33:40.590Z,97193.98
2019-01-08T15:36:12.799Z,97194.36
2019-01-08T15:38:45.016Z,97208.23
2019-01-08T15:41:17.220Z,97209.88
2019-01-08T15:43:49.537Z,97204.08
2019-01-08T15:46:21.816Z,97208.77
2019-01-08T15:48:54.168Z,97191.48
2019-01-08T15:51:26.385Z,97196.34
2019-01-08T15:53:58.601Z,97189.73
2019-01-08T15:56:30.812Z,97198.88
2019-01-08T15:59:03.081Z,97199.02
2019-01-08T16:01:35.294Z,97198.11
2019-01-08T16:04:07.505Z,97193.44
2019-01-08T16:06:39.726Z,97190.16
2019-01-08T16:09:11.934Z,97201.05
2019-01-08T16:11:44.251Z,97198.07
2019-01-08T16:14:16.472Z,97194.83
2019-01-08T16:16:48.674Z,97210.09
2019-01-08T16:19:20.884Z,97194.67
2019-01-08T16:21:53.196Z,97201.16
2019-01-08T16:24:25.410Z,97201.00
2019-01-08T16:26:57.780Z,97216.03
2019-01-08T16:29:30.089Z,97219.81
2019-01-08T16:32:02.409Z,97228.31
2019-01-08T16:34:34.671Z,97214.61
2019-01-08T16:37:07.079Z,97213.82
2019-01-08T16:39:39.291Z,97216.37
2019-01-08T16:42:11.494Z,97209.72
2019-01-08T16:44:43.806Z,97205.47
2019-01-08T16:47:16.120Z,97204.56
2019-01-08T16:49:48.340Z,97197.72
2019-01-08T16:52:20.554Z,97196.22
2019-01-08T16:54:52.763Z,97188.16
2019-01-08T16:57:24.969Z,97203.75
2019-01-08T16:59:57.181Z,97203.28
2019-01-08T17:02:29.383Z,97200.89
2019-01-08T17:05:01.599Z,97199.61
2019-01-08T17:07:33.805Z,97194.77
2019-01-08T17:10:06.602Z,97195.30
2019-01-08T17:12:39.016Z,97193.91
2019-01-08T17:15:11.420Z,97182.65
2019-01-08T17:17:43.735Z,97178.77
2019-01-08T17:20:15.953Z,97180.41
2019-01-08T17:22:48.156Z,97186.47
2019-01-08T17:25:20.468Z,97183.85
2019-01-08T17:27:52.811Z,97196.45
2019-01-08T17:30:25.176Z,97201.50
2019-01-08T17:32:57.384Z,97205.28
2019-01-08T17:35:29.824Z,97197.56
2019-01-08T17:38:02.134Z,97188.48
2019-01-08T17:40:34.357Z,97195.91
2019-01-08T17:43:06.678Z,97200.48
2019-01-08T17:45:38.989Z,97207.55
2019-01-08T17:48:11.295Z,97206.67
2019-01-08T17:50:43.807Z,97202.39
2019-01-08T17:53:17.790Z,97206.13
2019-01-08T17:55:49.999Z,97212.59
2019-01-08T17:58:43.659Z,97206.45
2019-01-08T18:01:32.126Z,97208.85
2019-01-08T18:04:04.386Z,97215.19
2019-01-08T18:06:36.652Z,97210.47
2019-01-08T18:09:09.090Z,97214.73
2019-01-08T18:11:41.463Z,97214.85
2019-01-08T18:14:14.723Z,97198.44
2019-01-08T18:16:46.930Z,97203.05
2019-01-08T18:19:19.142Z,97206.67
2019-01-08T18:21:51.351Z,97197.02
2019-01-08T18:24:23.751Z,97197.73
2019-01-08T18:26:55.959Z,97199.93
2019-01-08T18:29:28.178Z,97198.88
2019-01-08T18:32:00.399Z,97189.49
2019-01-08T18:34:32.756Z,97193.81
2019-01-08T18:37:05.207Z,97189.74
2019-01-08T18:39:37.406Z,97203.06
2019-01-08T18:42:09.721Z,97194.53
2019-01-08T18:44:41.936Z,97183.39
2019-01-08T18:47:14.141Z,97191.49
2019-01-08T18:49:46.852Z,97185.17
2019-01-08T18:52:19.071Z,97185.09
2019-01-08T18:54:51.273Z,97181.39
2019-01-08T18:57:23.486Z,97184.84
2019-01-08T18:59:55.703Z,97184.12
2019-01-08T19:02:27.916Z,97180.66
2019-01-08T19:05:01.290Z,97175.99
2019-01-08T19:07:33.548Z,97173.33
2019-01-08T19:10:14.013Z,97174.40
2019-01-08T19:12:46.439Z,97174.70
2019-01-08T19:15:19.048Z,97167.87
2019-01-08T19:17:51.364Z,97174.38
2019-01-08T19:20:23.676Z,97168.17
2019-01-08T19:22:55.992Z,97157.27
2019-01-08T19:25:28.396Z,97170.86
2019-01-08T19:28:00.709Z,97166.94
2019-01-08T19:30:33.186Z,97160.73
2019-01-08T19:33:05.440Z,97160.18
2019-01-08T19:35:37.642Z,97156.68
2019-01-08T19:38:10.002Z,97154.92
2019-01-08T19:40:42.316Z,97137.73
2019-01-08T19:43:14.533Z,97147.80
2019-01-08T19:45:46.746Z,97133.80
2019-01-08T19:48:18.956Z,97139.81
2019-01-08T19:50:51.161Z,97137.30
2019-01-08T19:53:23.378Z,97128.27
2019-01-08T19:55:55.684Z,97128.46
2019-01-08T19:58:29.608Z,97122.53
2019-01-08T20:01:01.969Z,97122.58
2019-01-08T20:03:34.188Z,97128.30
2019-01-08T20:06:06.604Z,97114.38
2019-01-08T20:08:38.918Z,97112.22
2019-01-08T20:11:11.131Z,97106.78
2019-01-08T20:13:43.346Z,97114.85
2019-01-08T20:16:15.858Z,97114.63
2019-01-08T20:18:48.177Z,97117.80
2019-01-08T20:21:20.485Z,97116.00
2019-01-08T20:23:52.694Z,97113.39
2019-01-08T20:26:24.998Z,97108.30
2019-01-08T20:28:57.216Z,97110.22
2019-01-08T20:31:29.426Z,97089.25
2019-01-08T20:34:01.820Z,97093.80
2019-01-08T20:36:34.229Z,97103.77
2019-01-08T20:39:13.515Z,97089.84
2019-01-08T20:41:46.091Z,97098.74
2019-01-08T20:44:18.315Z,97089.84
2019-01-08T20:46:50.724Z,97082.20
2019-01-08T20:49:23.042Z,97091.14
2019-01-08T20:51:55.254Z,97088.58
2019-01-08T20:54:27.469Z,97070.43
2019-01-08T20:57:08.573Z,97072.88
2019-01-08T20:59:33.687Z,97078.95
2019-01-08T21:02:06.082Z,97083.17
2019-01-08T21:04:38.393Z,97077.91
2019-01-08T21:07:10.605Z,97081.42
2019-01-08T21:09:42.926Z,97076.99
2019-01-08T21:12:15.139Z,97089.37
2019-01-08T21:14:47.448Z,97078.19
2019-01-08T21:17:19.756Z,97090.59
2019-01-08T21:19:52.085Z,97080.44
2019-01-08T21:22:24.296Z,97087.64
2019-01-08T21:24:56.615Z,97087.02
2019-01-08T21:27:28.824Z,97088.92
2019-01-08T21:30:01.137Z,97090.26
2019-01-08T21:32:33.444Z,97099.04
2019-01-08T21:35:05.963Z,97091.00
2019-01-08T21:37:38.219Z,97101.95
2019-01-08T21:40:10.940Z,97096.70
2019-01-08T21:42:43.144Z,97108.58
2019-01-08T21:45:15.459Z,97105.91
2019-01-08T21:47:47.665Z,97100.33
2019-01-08T21:50:19.868Z,97099.58
2019-01-08T21:52:52.075Z,97099.32
2019-01-08T21:55:24.385Z,97109.91
2019-01-08T21:57:56.690Z,97100.05
2019-01-08T22:00:29.376Z,97110.02
2019-01-08T22:03:02.087Z,97097.56
2019-01-08T22:05:34.396Z,97094.30
2019-01-08T22:08:07.065Z,97098.98
2019-01-08T22:10:39.383Z,97090.66
2019-01-08T22:13:11.599Z,97094.42
2019-01-08T22:15:43.909Z,97095.84
2019-01-08T22:18:17.143Z,97095.27
2019-01-08T22:20:49.370Z,97099.05
2019-01-08T22:23:21.588Z,97091.86
2019-01-08T22:25:53.800Z,97091.84
2019-01-08T22:28:26.007Z,97096.31
2019-01-08T22:30:58.218Z,97087.97
2019-01-08T22:33:30.528Z,97094.60
2019-01-08T22:36:02.984Z,97082.70
2019-01-08T22:38:35.497Z,97083.27
2019-01-08T22:41:09.221Z,97084.22
2019-01-08T22:43:41.534Z,97081.42
2019-01-08T22:46:13.847Z,97084.56
2019-01-08T22:48:46.152Z,97069.27
2019-01-08T22:51:18.564Z,97070.60
2019-01-08T22:53:50.861Z,97067.62
2019-01-08T22:56:23.084Z,97060.31
2019-01-08T22:58:55.288Z,97062.59
2019-01-08T23:01:55.402Z,97056.84
2019-01-08T23:04:27.861Z,97055.05
2019-01-08T23:07:00.368Z,97063.42
2019-01-08T23:09:32.883Z,97044.05
2019-01-08T23:12:05.397Z,97059.83
2019-01-08T23:14:37.799Z,97044.63
2019-01-08T23:17:10.312Z,97052.07
2019-01-08T23:19:42.724Z,97043.02
2019-01-08T23:22:15.226Z,97049.30
2019-01-08T23:24:47.437Z,97044.70
2019-01-08T23:27:19.857Z,97035.37
2019-01-08T23:29:52.052Z,97039.91
2019-01-08T23:32:24.266Z,97042.14
2019-01-08T23:34:56.724Z,97032.28
2019-01-08T23:37:29.032Z,97047.97
2019-01-08T23:40:01.546Z,97045.95
2019-01-08T23:42:33.949Z,97043.78
2019-01-08T23:45:07.239Z,97051.55
2019-01-08T23:47:39.758Z,97050.00
2019-01-08T23:50:12.274Z,97047.67
2019-01-08T23:53:07.790Z,97049.69
2019-01-08T23:55:51.530Z,97050.33
2019-01-08T23:58:24.022Z,97047.77
